createdAt,value
2018-04-17T00:00:50.061Z,966.46
2018-04-17T00:01:49.999Z,966.47
2018-04-17T00:02:49.931Z,966.48
2018-04-17T00:03:49.872Z,966.50
2018-04-17T00:04:49.808Z,966.51
2018-04-17T00:05:49.748Z,966.54
2018-04-17T00:06:49.689Z,966.51
2018-04-17T00:07:49.622Z,966.53
2018-04-17T00:08:49.562Z,966.54
2018-04-17T00:09:49.499Z,966.52
2018-04-17T00:10:49.437Z,966.52
2018-04-17T00:11:49.375Z,966.54
2018-04-17T00:12:49.314Z,966.54
2018-04-17T00:13:49.257Z,966.52
2018-04-17T00:14:49.192Z,966.55
2018-04-17T00:15:49.127Z,966.50
2018-04-17T00:16:49.068Z,966.51
2018-04-17T00:17:49.018Z,966.51
2018-04-17T00:18:48.942Z,966.51
2018-04-17T00:19:48.880Z,966.50
2018-04-17T00:20:48.820Z,966.48
2018-04-17T00:21:48.755Z,966.51
2018-04-17T00:22:48.692Z,966.48
2018-04-17T00:23:48.630Z,966.45
2018-04-17T00:24:48.570Z,966.46
2018-04-17T00:25:48.510Z,966.44
2018-04-17T00:26:48.443Z,966.47
2018-04-17T00:27:48.383Z,966.45
2018-04-17T00:28:48.323Z,966.50
2018-04-17T00:29:48.260Z,966.52
2018-04-17T00:30:48.195Z,966.51
2018-04-17T00:31:48.134Z,966.51
2018-04-17T00:32:48.073Z,966.53
2018-04-17T00:33:48.012Z,966.54
2018-04-17T00:34:47.949Z,966.50
2018-04-17T00:35:47.889Z,966.51
2018-04-17T00:36:47.826Z,966.56
2018-04-17T00:37:47.762Z,966.51
2018-04-17T00:38:47.702Z,966.52
2018-04-17T00:39:47.645Z,966.56
2018-04-17T00:40:47.575Z,966.56
2018-04-17T00:41:47.515Z,966.59
2018-04-17T00:42:47.453Z,966.59
2018-04-17T00:43:47.392Z,966.58
2018-04-17T00:44:47.331Z,966.55
2018-04-17T00:45:47.269Z,966.58
2018-04-17T00:46:47.210Z,966.62
2018-04-17T00:47:47.145Z,966.60
2018-04-17T00:48:47.083Z,966.59
2018-04-17T00:49:47.019Z,966.60
2018-04-17T00:50:46.958Z,966.60
2018-04-17T00:51:46.896Z,966.59
2018-04-17T00:52:46.834Z,966.60
2018-04-17T00:53:46.771Z,966.61
2018-04-17T00:54:46.710Z,966.56
2018-04-17T00:55:46.648Z,966.56
2018-04-17T00:56:46.625Z,966.60
2018-04-17T00:57:46.527Z,966.59
2018-04-17T00:58:46.460Z,966.61
2018-04-17T00:59:46.399Z,966.63
2018-04-17T01:00:46.339Z,966.65
2018-04-17T01:01:46.279Z,966.62
2018-04-17T01:02:46.215Z,966.67
2018-04-17T01:03:46.153Z,966.66
2018-04-17T01:04:46.091Z,966.65
2018-04-17T01:05:46.029Z,966.62
2018-04-17T01:06:45.965Z,966.67
2018-04-17T01:07:45.904Z,966.66
2018-04-17T01:08:45.843Z,966.65
2018-04-17T01:09:45.782Z,966.65
2018-04-17T01:10:45.720Z,966.67
2018-04-17T01:11:45.657Z,966.67
2018-04-17T01:12:45.595Z,966.67
2018-04-17T01:13:45.542Z,966.66
2018-04-17T01:14:45.470Z,966.66
2018-04-17T01:15:45.409Z,966.66
2018-04-17T01:16:45.345Z,966.66
2018-04-17T01:17:45.284Z,966.66
2018-04-17T01:18:45.221Z,966.67
2018-04-17T01:19:45.160Z,966.63
2018-04-17T01:20:45.097Z,966.59
2018-04-17T01:21:45.035Z,966.57
2018-04-17T01:22:44.973Z,966.61
2018-04-17T01:23:44.912Z,966.58
2018-04-17T01:24:44.851Z,966.58
2018-04-17T01:25:44.785Z,966.59
2018-04-17T01:26:44.725Z,966.58
2018-04-17T01:27:44.667Z,966.58
2018-04-17T01:28:44.601Z,966.58
2018-04-17T01:29:44.538Z,966.58
2018-04-17T01:30:44.478Z,966.60
2018-04-17T01:31:44.414Z,966.61
2018-04-17T01:32:44.351Z,966.62
2018-04-17T01:33:44.289Z,966.60
2018-04-17T01:34:44.227Z,966.59
2018-04-17T01:35:44.176Z,966.59
2018-04-17T01:36:44.103Z,966.60
2018-04-17T01:37:44.041Z,966.58
2018-04-17T01:38:43.978Z,966.63
2018-04-17T01:39:43.920Z,966.63
2018-04-17T01:40:43.854Z,966.60
2018-04-17T01:41:43.791Z,966.64
2018-04-17T01:42:43.734Z,966.64
2018-04-17T01:43:43.668Z,966.58
2018-04-17T01:44:43.606Z,966.65
2018-04-17T01:45:43.546Z,966.64
2018-04-17T01:46:43.482Z,966.66
2018-04-17T01:47:43.419Z,966.68
2018-04-17T01:48:43.358Z,966.68
2018-04-17T01:49:43.295Z,966.70
2018-04-17T01:50:43.233Z,966.68
2018-04-17T01:51:43.171Z,966.74
2018-04-17T01:52:43.116Z,966.75
2018-04-17T01:53:43.052Z,966.76
2018-04-17T01:54:42.987Z,966.77
2018-04-17T01:55:42.924Z,966.79
2018-04-17T01:56:42.859Z,966.83
2018-04-17T01:57:42.796Z,966.78
2018-04-17T01:58:42.736Z,966.85
2018-04-17T01:59:42.679Z,966.79
2018-04-17T02:00:42.610Z,966.82
2018-04-17T02:01:42.552Z,966.85
2018-04-17T02:02:42.501Z,966.85
2018-04-17T02:03:42.427Z,966.86
2018-04-17T02:04:42.366Z,966.84
2018-04-17T02:05:42.314Z,966.87
2018-04-17T02:06:42.239Z,966.85
2018-04-17T02:07:42.176Z,966.85
2018-04-17T02:08:42.117Z,966.83
2018-04-17T02:09:42.051Z,966.87
2018-04-17T02:10:41.992Z,966.85
2018-04-17T02:11:41.928Z,966.87
2018-04-17T02:12:41.866Z,966.89
2018-04-17T02:13:41.804Z,966.87
2018-04-17T02:14:41.741Z,966.88
2018-04-17T02:15:41.679Z,966.88
2018-04-17T02:16:41.616Z,966.87
2018-04-17T02:17:41.556Z,966.90
2018-04-17T02:18:41.492Z,966.93
2018-04-17T02:19:41.441Z,966.89
2018-04-17T02:20:41.369Z,966.94
2018-04-17T02:21:41.307Z,966.95
2018-04-17T02:22:41.241Z,966.94
2018-04-17T02:23:41.180Z,966.94
2018-04-17T02:24:41.117Z,966.99
2018-04-17T02:25:41.056Z,966.98
2018-04-17T02:26:40.992Z,967.01
2018-04-17T02:27:40.929Z,966.96
2018-04-17T02:28:40.872Z,966.97
2018-04-17T02:29:40.807Z,967.00
2018-04-17T02:30:40.762Z,966.98
2018-04-17T02:31:40.679Z,967.02
2018-04-17T02:32:40.618Z,967.02
2018-04-17T02:33:40.553Z,967.03
2018-04-17T02:34:40.492Z,967.02
2018-04-17T02:35:40.430Z,967.03
2018-04-17T02:36:40.374Z,966.98
2018-04-17T02:37:40.302Z,966.99
2018-04-17T02:38:40.243Z,967.00
2018-04-17T02:39:40.180Z,967.03
2018-04-17T02:40:40.117Z,967.01
2018-04-17T02:41:40.056Z,967.07
2018-04-17T02:42:39.991Z,967.08
2018-04-17T02:43:39.929Z,967.09
2018-04-17T02:44:39.867Z,967.12
2018-04-17T02:45:39.816Z,967.06
2018-04-17T02:46:39.740Z,967.10
2018-04-17T02:47:39.724Z,967.15
2018-04-17T02:48:39.618Z,967.12
2018-04-17T02:49:39.554Z,967.18
2018-04-17T02:50:39.489Z,967.14
2018-04-17T02:51:39.427Z,967.13
2018-04-17T02:52:39.371Z,967.13
2018-04-17T02:53:39.303Z,967.16
2018-04-17T02:54:39.237Z,967.18
2018-04-17T02:55:39.179Z,967.17
2018-04-17T02:56:39.115Z,967.17
2018-04-17T02:57:39.051Z,967.17
2018-04-17T02:58:38.986Z,967.25
2018-04-17T02:59:38.924Z,967.27
2018-04-17T03:00:38.866Z,967.32
2018-04-17T03:01:38.799Z,967.31
2018-04-17T03:02:38.736Z,967.34
2018-04-17T03:03:38.672Z,967.34
2018-04-17T03:04:38.617Z,967.35
2018-04-17T03:05:38.554Z,967.36
2018-04-17T03:06:38.482Z,967.37
2018-04-17T03:07:38.421Z,967.38
2018-04-17T03:08:38.358Z,967.38
2018-04-17T03:09:38.296Z,967.34
2018-04-17T03:10:38.228Z,967.39
2018-04-17T03:11:38.171Z,967.41
2018-04-17T03:12:38.107Z,967.43
2018-04-17T03:13:38.042Z,967.42
2018-04-17T03:14:37.978Z,967.42
2018-04-17T03:15:37.921Z,967.45
2018-04-17T03:16:37.856Z,967.45
2018-04-17T03:17:37.792Z,967.44
2018-04-17T03:18:37.729Z,967.45
2018-04-17T03:19:37.665Z,967.42
2018-04-17T03:20:37.604Z,967.42
2018-04-17T03:21:37.542Z,967.41
2018-04-17T03:22:37.477Z,967.46
2018-04-17T03:23:37.418Z,967.49
2018-04-17T03:24:37.352Z,967.50
2018-04-17T03:25:37.291Z,967.50
2018-04-17T03:26:37.225Z,967.47
2018-04-17T03:27:37.164Z,967.55
2018-04-17T03:28:37.101Z,967.50
2018-04-17T03:29:37.037Z,967.54
2018-04-17T03:30:36.972Z,967.48
2018-04-17T03:31:36.913Z,967.49
2018-04-17T03:32:36.848Z,967.52
2018-04-17T03:33:36.784Z,967.48
2018-04-17T03:34:36.723Z,967.49
2018-04-17T03:35:36.658Z,967.53
2018-04-17T03:36:36.594Z,967.53
2018-04-17T03:37:36.536Z,967.54
2018-04-17T03:38:36.475Z,967.58
2018-04-17T03:39:36.405Z,967.58
2018-04-17T03:40:36.346Z,967.58
2018-04-17T03:41:36.280Z,967.57
2018-04-17T03:42:36.215Z,967.60
2018-04-17T03:43:36.154Z,967.61
2018-04-17T03:44:36.092Z,967.62
2018-04-17T03:45:36.028Z,967.67
2018-04-17T03:46:35.964Z,967.67
2018-04-17T03:47:35.903Z,967.67
2018-04-17T03:48:35.838Z,967.66
2018-04-17T03:49:35.775Z,967.64
2018-04-17T03:50:35.711Z,967.66
2018-04-17T03:51:35.647Z,967.64
2018-04-17T03:52:35.584Z,967.66
2018-04-17T03:53:35.522Z,967.70
2018-04-17T03:54:35.460Z,967.71
2018-04-17T03:55:35.394Z,967.70
2018-04-17T03:56:35.332Z,967.73
2018-04-17T03:57:35.269Z,967.72
2018-04-17T03:58:35.205Z,967.73
2018-04-17T03:59:35.141Z,967.68
2018-04-17T04:00:35.082Z,967.72
2018-04-17T04:01:35.017Z,967.73
2018-04-17T04:02:34.953Z,967.79
2018-04-17T04:03:34.889Z,967.78
2018-04-17T04:04:34.824Z,967.77
2018-04-17T04:05:34.769Z,967.80
2018-04-17T04:06:34.700Z,967.81
2018-04-17T04:07:34.638Z,967.78
2018-04-17T04:08:34.574Z,967.77
2018-04-17T04:09:34.526Z,967.87
2018-04-17T04:10:34.448Z,967.88
2018-04-17T04:11:34.381Z,967.88
2018-04-17T04:12:34.320Z,967.90
2018-04-17T04:13:34.256Z,967.93
2018-04-17T04:14:34.198Z,967.98
2018-04-17T04:15:34.129Z,967.95
2018-04-17T04:16:34.068Z,967.99
2018-04-17T04:17:34.003Z,967.96
2018-04-17T04:18:33.943Z,967.96
2018-04-17T04:19:33.875Z,967.95
2018-04-17T04:20:33.813Z,967.97
2018-04-17T04:21:33.750Z,967.99
2018-04-17T04:22:33.685Z,968.00
2018-04-17T04:23:33.621Z,968.01
2018-04-17T04:24:33.559Z,968.00
2018-04-17T04:25:33.506Z,968.00
2018-04-17T04:26:33.433Z,968.02
2018-04-17T04:27:33.383Z,968.02
2018-04-17T04:28:33.305Z,968.03
2018-04-17T04:29:33.244Z,968.05
2018-04-17T04:30:33.177Z,968.08
2018-04-17T04:31:33.115Z,968.10
2018-04-17T04:32:33.052Z,968.10
2018-04-17T04:33:32.990Z,968.08
2018-04-17T04:34:32.926Z,968.12
2018-04-17T04:35:32.861Z,968.11
2018-04-17T04:36:32.803Z,968.14
2018-04-17T04:37:32.735Z,968.21
2018-04-17T04:38:32.670Z,968.20
2018-04-17T04:39:32.606Z,968.21
2018-04-17T04:40:32.546Z,968.22
2018-04-17T04:41:32.482Z,968.21
2018-04-17T04:42:32.421Z,968.18
2018-04-17T04:43:32.354Z,968.19
2018-04-17T04:44:32.289Z,968.18
2018-04-17T04:45:32.226Z,968.16
2018-04-17T04:46:32.165Z,968.22
2018-04-17T04:47:32.098Z,968.27
2018-04-17T04:48:32.038Z,968.26
2018-04-17T04:49:31.975Z,968.32
2018-04-17T04:50:31.909Z,968.35
2018-04-17T04:51:31.859Z,968.36
2018-04-17T04:52:31.789Z,968.41
2018-04-17T04:53:31.724Z,968.42
2018-04-17T04:54:31.655Z,968.43
2018-04-17T04:55:31.592Z,968.39
2018-04-17T04:56:31.529Z,968.37
2018-04-17T04:57:31.475Z,968.38
2018-04-17T04:58:31.405Z,968.39
2018-04-17T04:59:31.341Z,968.41
2018-04-17T05:00:31.279Z,968.44
2018-04-17T05:01:31.212Z,968.47
2018-04-17T05:02:31.148Z,968.47
2018-04-17T05:03:31.083Z,968.47
2018-04-17T05:04:31.022Z,968.46
2018-04-17T05:05:30.956Z,968.46
2018-04-17T05:06:30.896Z,968.53
2018-04-17T05:07:30.831Z,968.52
2018-04-17T05:08:30.767Z,968.58
2018-04-17T05:09:30.704Z,968.56
2018-04-17T05:10:30.641Z,968.58
2018-04-17T05:11:30.579Z,968.60
2018-04-17T05:12:30.513Z,968.61
2018-04-17T05:13:30.450Z,968.59
2018-04-17T05:14:30.386Z,968.60
2018-04-17T05:15:30.326Z,968.60
2018-04-17T05:16:30.262Z,968.60
2018-04-17T05:17:30.197Z,968.60
2018-04-17T05:18:30.153Z,968.58
2018-04-17T05:19:30.070Z,968.59
2018-04-17T05:20:30.005Z,968.62
2018-04-17T05:21:29.941Z,968.60
2018-04-17T05:22:29.879Z,968.64
2018-04-17T05:23:29.818Z,968.67
2018-04-17T05:24:29.763Z,968.73
2018-04-17T05:25:29.690Z,968.75
2018-04-17T05:26:29.644Z,968.78
2018-04-17T05:27:29.727Z,968.77
2018-04-17T05:28:29.501Z,968.78
2018-04-17T05:29:29.437Z,968.80
2018-04-17T05:30:29.372Z,968.79
2018-04-17T05:31:29.310Z,968.85
2018-04-17T05:32:29.248Z,968.84
2018-04-17T05:33:29.186Z,968.90
2018-04-17T05:34:29.122Z,968.91
2018-04-17T05:35:29.057Z,968.90
2018-04-17T05:36:28.992Z,968.93
2018-04-17T05:37:28.935Z,968.94
2018-04-17T05:38:28.866Z,968.98
2018-04-17T05:39:28.824Z,968.97
2018-04-17T05:40:28.786Z,969.01
2018-04-17T05:41:28.676Z,969.03
2018-04-17T05:42:28.613Z,969.03
2018-04-17T05:43:28.551Z,969.04
2018-04-17T05:44:28.485Z,969.06
2018-04-17T05:45:28.426Z,969.05
2018-04-17T05:46:28.364Z,969.03
2018-04-17T05:47:28.298Z,969.07
2018-04-17T05:48:28.233Z,969.08
2018-04-17T05:49:28.173Z,969.11
2018-04-17T05:50:28.111Z,969.15
2018-04-17T05:51:28.044Z,969.10
2018-04-17T05:52:27.982Z,969.17
2018-04-17T05:53:27.916Z,969.18
2018-04-17T05:54:27.854Z,969.15
2018-04-17T05:55:27.795Z,969.23
2018-04-17T05:56:27.728Z,969.22
2018-04-17T05:57:27.670Z,969.24
2018-04-17T05:58:27.607Z,969.23
2018-04-17T05:59:27.543Z,969.28
2018-04-17T06:00:27.477Z,969.21
2018-04-17T06:01:27.419Z,969.21
2018-04-17T06:02:27.352Z,969.21
2018-04-17T06:03:27.308Z,969.22
2018-04-17T06:04:27.224Z,969.21
2018-04-17T06:05:27.158Z,969.23
2018-04-17T06:06:27.099Z,969.24
2018-04-17T06:07:27.036Z,969.25
2018-04-17T06:08:26.974Z,969.22
2018-04-17T06:09:26.910Z,969.26
2018-04-17T06:10:26.847Z,969.20
2018-04-17T06:11:26.783Z,969.24
2018-04-17T06:12:26.721Z,969.27
2018-04-17T06:13:26.721Z,969.32
2018-04-17T06:14:26.609Z,969.31
2018-04-17T06:15:26.530Z,969.34
2018-04-17T06:16:26.471Z,969.39
2018-04-17T06:17:26.408Z,969.40
2018-04-17T06:18:26.347Z,969.33
2018-04-17T06:19:26.282Z,969.35
2018-04-17T06:20:26.221Z,969.34
2018-04-17T06:21:26.157Z,969.36
2018-04-17T06:22:26.093Z,969.33
2018-04-17T06:23:26.032Z,969.37
2018-04-17T06:24:25.969Z,969.37
2018-04-17T06:25:25.907Z,969.38
2018-04-17T06:26:25.846Z,969.39
2018-04-17T06:27:25.779Z,969.38
2018-04-17T06:28:25.716Z,969.39
2018-04-17T06:29:25.655Z,969.41
2018-04-17T06:30:25.592Z,969.45
2018-04-17T06:31:25.532Z,969.45
2018-04-17T06:32:25.471Z,969.49
2018-04-17T06:33:25.405Z,969.51
2018-04-17T06:34:25.341Z,969.52
2018-04-17T06:35:25.278Z,969.50
2018-04-17T06:36:25.220Z,969.52
2018-04-17T06:37:25.155Z,969.54
2018-04-17T06:38:25.094Z,969.54
2018-04-17T06:39:25.030Z,969.57
2018-04-17T06:40:24.967Z,969.60
2018-04-17T06:41:24.935Z,969.61
2018-04-17T06:42:24.843Z,969.57
2018-04-17T06:43:24.780Z,969.61
2018-04-17T06:44:24.728Z,969.60
2018-04-17T06:45:24.659Z,969.62
2018-04-17T06:46:24.596Z,969.64
2018-04-17T06:47:24.541Z,969.69
2018-04-17T06:48:24.470Z,969.72
2018-04-17T06:49:24.411Z,969.69
2018-04-17T06:50:24.346Z,969.73
2018-04-17T06:51:24.283Z,969.74
2018-04-17T06:52:24.225Z,969.73
2018-04-17T06:53:24.160Z,969.77
2018-04-17T06:54:24.096Z,969.76
2018-04-17T06:55:24.034Z,969.75
2018-04-17T06:56:23.972Z,969.71
2018-04-17T06:57:23.913Z,969.73
2018-04-17T06:58:23.848Z,969.79
2018-04-17T06:59:23.785Z,969.78
2018-04-17T07:00:23.724Z,969.76
2018-04-17T07:01:23.676Z,969.78
2018-04-17T07:02:23.597Z,969.77
2018-04-17T07:03:23.559Z,969.77
2018-04-17T07:04:23.482Z,969.78
2018-04-17T07:05:23.416Z,969.80
2018-04-17T07:06:23.353Z,969.82
2018-04-17T07:07:23.293Z,969.87
2018-04-17T07:08:23.236Z,969.83
2018-04-17T07:09:23.175Z,969.86
2018-04-17T07:10:23.103Z,969.86
2018-04-17T07:11:23.046Z,969.80
2018-04-17T07:12:22.994Z,969.85
2018-04-17T07:13:22.919Z,969.85
2018-04-17T07:14:22.867Z,969.85
2018-04-17T07:15:22.800Z,969.88
2018-04-17T07:16:22.735Z,969.87
2018-04-17T07:17:22.677Z,969.90
2018-04-17T07:18:22.613Z,969.90
2018-04-17T07:19:22.575Z,969.92
2018-04-17T07:20:22.495Z,969.95
2018-04-17T07:21:22.429Z,969.96
2018-04-17T07:22:22.367Z,970.00
2018-04-17T07:23:22.306Z,970.02
2018-04-17T07:24:22.243Z,970.04
2018-04-17T07:25:22.184Z,970.04
2018-04-17T07:26:22.122Z,970.07
2018-04-17T07:27:22.061Z,970.10
2018-04-17T07:28:22.004Z,970.10
2018-04-17T07:29:21.974Z,970.12
2018-04-17T07:30:21.876Z,970.12
2018-04-17T07:31:21.811Z,970.13
2018-04-17T07:32:21.755Z,970.19
2018-04-17T07:33:21.694Z,970.16
2018-04-17T07:34:21.637Z,970.18
2018-04-17T07:35:21.570Z,970.18
2018-04-17T07:36:21.512Z,970.19
2018-04-17T07:37:21.448Z,970.20
2018-04-17T07:38:21.384Z,970.21
2018-04-17T07:39:21.333Z,970.23
2018-04-17T07:40:21.325Z,970.29
2018-04-17T07:41:21.203Z,970.25
2018-04-17T07:42:21.144Z,970.25
2018-04-17T07:43:21.084Z,970.28
2018-04-17T07:44:21.020Z,970.25
2018-04-17T07:45:20.960Z,970.28
2018-04-17T07:46:20.898Z,970.25
2018-04-17T07:47:20.839Z,970.32
2018-04-17T07:48:20.775Z,970.31
2018-04-17T07:49:20.715Z,970.31
2018-04-17T07:50:20.653Z,970.37
2018-04-17T07:51:20.592Z,970.37
2018-04-17T07:52:20.530Z,970.34
2018-04-17T07:53:20.472Z,970.34
2018-04-17T07:54:20.411Z,970.34
2018-04-17T07:55:20.351Z,970.34
2018-04-17T07:56:20.289Z,970.30
2018-04-17T07:57:20.227Z,970.36
2018-04-17T07:58:20.173Z,970.36
2018-04-17T07:59:20.104Z,970.34
2018-04-17T08:00:20.045Z,970.34
2018-04-17T08:01:19.982Z,970.35
2018-04-17T08:02:19.924Z,970.40
2018-04-17T08:03:19.864Z,970.43
2018-04-17T08:04:19.801Z,970.43
2018-04-17T08:05:19.741Z,970.44
2018-04-17T08:06:19.679Z,970.43
2018-04-17T08:07:19.617Z,970.43
2018-04-17T08:08:19.605Z,970.44
2018-04-17T08:09:19.494Z,970.43
2018-04-17T08:10:19.433Z,970.43
2018-04-17T08:11:19.375Z,970.45
2018-04-17T08:12:19.316Z,970.45
2018-04-17T08:13:19.255Z,970.48
2018-04-17T08:14:19.194Z,970.50
2018-04-17T08:15:19.132Z,970.48
2018-04-17T08:16:19.075Z,970.51
2018-04-17T08:17:19.013Z,970.54
2018-04-17T08:18:18.956Z,970.53
2018-04-17T08:19:18.891Z,970.56
2018-04-17T08:20:18.836Z,970.60
2018-04-17T08:21:18.772Z,970.51
2018-04-17T08:22:18.711Z,970.52
2018-04-17T08:23:18.651Z,970.56
2018-04-17T08:24:18.592Z,970.56
2018-04-17T08:25:18.531Z,970.62
2018-04-17T08:26:18.471Z,970.60
2018-04-17T08:27:18.412Z,970.66
2018-04-17T08:28:18.350Z,970.69
2018-04-17T08:29:18.289Z,970.69
2018-04-17T08:30:18.229Z,970.73
2018-04-17T08:31:18.169Z,970.74
2018-04-17T08:32:18.109Z,970.76
2018-04-17T08:33:18.051Z,970.76
2018-04-17T08:34:17.993Z,970.79
2018-04-17T08:35:17.930Z,970.80
2018-04-17T08:36:17.873Z,970.83
2018-04-17T08:37:17.809Z,970.86
2018-04-17T08:38:17.755Z,970.85
2018-04-17T08:39:17.689Z,970.82
2018-04-17T08:40:17.630Z,970.82
2018-04-17T08:41:17.571Z,970.82
2018-04-17T08:42:17.513Z,970.80
2018-04-17T08:43:17.457Z,970.84
2018-04-17T08:44:17.393Z,970.84
2018-04-17T08:45:17.331Z,970.91
2018-04-17T08:46:17.271Z,970.88
2018-04-17T08:47:17.210Z,970.90
2018-04-17T08:48:17.154Z,970.94
2018-04-17T08:49:17.091Z,970.94
2018-04-17T08:50:17.032Z,970.92
2018-04-17T08:51:16.970Z,970.97
2018-04-17T08:52:16.914Z,971.00
2018-04-17T08:53:16.852Z,970.98
2018-04-17T08:54:16.797Z,971.01
2018-04-17T08:55:16.733Z,970.98
2018-04-17T08:56:16.673Z,971.01
2018-04-17T08:57:16.614Z,971.04
2018-04-17T08:58:16.553Z,971.07
2018-04-17T08:59:16.497Z,971.04
2018-04-17T09:00:16.434Z,971.02
2018-04-17T09:01:16.377Z,971.04
2018-04-17T09:02:16.313Z,971.02
2018-04-17T09:03:16.256Z,971.05
2018-04-17T09:04:16.197Z,971.12
2018-04-17T09:05:16.185Z,971.14
2018-04-17T09:06:16.079Z,971.16
2018-04-17T09:07:16.018Z,971.17
2018-04-17T09:08:15.959Z,971.22
2018-04-17T09:09:15.899Z,971.24
2018-04-17T09:10:15.838Z,971.20
2018-04-17T09:11:15.779Z,971.20
2018-04-17T09:12:15.722Z,971.20
2018-04-17T09:13:15.659Z,971.21
2018-04-17T09:14:15.604Z,971.18
2018-04-17T09:15:15.546Z,971.21
2018-04-17T09:16:15.487Z,971.22
2018-04-17T09:17:15.424Z,971.18
2018-04-17T09:18:15.367Z,971.19
2018-04-17T09:19:15.306Z,971.14
2018-04-17T09:20:15.246Z,971.21
2018-04-17T09:21:15.188Z,971.19
2018-04-17T09:22:15.134Z,971.14
2018-04-17T09:23:15.071Z,971.11
2018-04-17T09:24:15.013Z,971.09
2018-04-17T09:25:14.954Z,971.11
2018-04-17T09:26:14.892Z,971.09
2018-04-17T09:27:14.837Z,971.11
2018-04-17T09:28:14.777Z,971.12
2018-04-17T09:29:14.740Z,971.14
2018-04-17T09:30:14.659Z,971.15
2018-04-17T09:31:14.599Z,971.20
2018-04-17T09:32:14.543Z,971.15
2018-04-17T09:33:14.547Z,971.13
2018-04-17T09:34:14.420Z,971.13
2018-04-17T09:35:14.365Z,971.17
2018-04-17T09:36:14.359Z,971.14
2018-04-17T09:37:14.248Z,971.13
2018-04-17T09:38:14.190Z,971.15
2018-04-17T09:39:14.130Z,971.15
2018-04-17T09:40:14.071Z,971.16
2018-04-17T09:41:14.016Z,971.12
2018-04-17T09:42:13.955Z,971.15
2018-04-17T09:43:13.894Z,971.20
2018-04-17T09:44:13.841Z,971.16
2018-04-17T09:45:13.781Z,971.21
2018-04-17T09:46:13.727Z,971.21
2018-04-17T09:47:13.665Z,971.15
2018-04-17T09:48:13.607Z,971.23
2018-04-17T09:49:13.548Z,971.24
2018-04-17T09:50:13.492Z,971.23
2018-04-17T09:51:13.436Z,971.23
2018-04-17T09:52:13.376Z,971.23
2018-04-17T09:53:13.317Z,971.23
2018-04-17T09:54:13.260Z,971.22
2018-04-17T09:55:13.204Z,971.22
2018-04-17T09:56:13.143Z,971.26
2018-04-17T09:57:13.088Z,971.21
2018-04-17T09:58:13.029Z,971.25
2018-04-17T09:59:12.971Z,971.19
2018-04-17T10:00:12.916Z,971.23
2018-04-17T10:01:12.869Z,971.25
2018-04-17T10:02:12.821Z,971.25
2018-04-17T10:03:12.742Z,971.23
2018-04-17T10:04:12.686Z,971.23
2018-04-17T10:05:12.629Z,971.20
2018-04-17T10:06:12.572Z,971.23
2018-04-17T10:07:12.511Z,971.16
2018-04-17T10:08:12.456Z,971.14
2018-04-17T10:09:12.456Z,971.17
2018-04-17T10:10:12.343Z,971.15
2018-04-17T10:11:12.284Z,971.16
2018-04-17T10:12:12.229Z,971.15
2018-04-17T10:13:12.173Z,971.17
2018-04-17T10:14:12.113Z,971.15
2018-04-17T10:15:12.063Z,971.17
2018-04-17T10:16:12.017Z,971.18
2018-04-17T10:17:11.945Z,971.17
2018-04-17T10:18:11.888Z,971.22
2018-04-17T10:19:11.830Z,971.25
2018-04-17T10:20:11.774Z,971.21
2018-04-17T10:21:11.715Z,971.15
2018-04-17T10:22:11.660Z,971.15
2018-04-17T10:23:11.602Z,971.14
2018-04-17T10:24:11.545Z,971.16
2018-04-17T10:25:11.488Z,971.10
2018-04-17T10:26:11.433Z,971.17
2018-04-17T10:27:11.378Z,971.12
2018-04-17T10:28:11.320Z,971.10
2018-04-17T10:29:11.263Z,971.10
2018-04-17T10:30:11.206Z,971.14
2018-04-17T10:31:11.148Z,971.08
2018-04-17T10:32:11.099Z,971.07
2018-04-17T10:33:11.040Z,971.11
2018-04-17T10:34:10.986Z,971.09
2018-04-17T10:35:10.923Z,971.07
2018-04-17T10:36:10.867Z,971.09
2018-04-17T10:37:10.810Z,971.11
2018-04-17T10:38:10.751Z,971.13
2018-04-17T10:39:10.697Z,971.08
2018-04-17T10:40:10.645Z,971.11
2018-04-17T10:41:10.582Z,971.13
2018-04-17T10:42:10.527Z,971.10
2018-04-17T10:43:10.467Z,971.12
2018-04-17T10:44:10.413Z,971.09
2018-04-17T10:45:10.355Z,971.09
2018-04-17T10:46:10.303Z,971.09
2018-04-17T10:47:10.240Z,971.12
2018-04-17T10:48:10.183Z,971.09
2018-04-17T10:49:10.128Z,971.11
2018-04-17T10:50:10.068Z,971.14
2018-04-17T10:51:10.017Z,971.12
2018-04-17T10:52:09.955Z,971.15
2018-04-17T10:53:09.899Z,971.14
2018-04-17T10:54:09.840Z,971.08
2018-04-17T10:55:09.783Z,971.13
2018-04-17T10:56:09.727Z,971.16
2018-04-17T10:57:09.668Z,971.12
2018-04-17T10:58:09.611Z,971.18
2018-04-17T10:59:09.559Z,971.20
2018-04-17T11:00:09.499Z,971.12
2018-04-17T11:01:09.446Z,971.15
2018-04-17T11:02:09.385Z,971.12
2018-04-17T11:03:09.337Z,971.13
2018-04-17T11:04:09.289Z,971.11
2018-04-17T11:05:09.290Z,971.12
2018-04-17T11:06:09.153Z,971.13
2018-04-17T11:07:09.095Z,971.10
2018-04-17T11:08:09.039Z,971.07
2018-04-17T11:09:08.983Z,971.17
2018-04-17T11:10:08.926Z,971.09
2018-04-17T11:11:08.870Z,971.07
2018-04-17T11:12:08.810Z,971.15
2018-04-17T11:13:08.751Z,971.13
2018-04-17T11:14:08.714Z,971.17
2018-04-17T11:15:08.645Z,971.19
2018-04-17T11:16:08.581Z,971.15
2018-04-17T11:17:08.519Z,971.13
2018-04-17T11:18:08.462Z,971.16
2018-04-17T11:19:08.404Z,971.20
2018-04-17T11:20:08.347Z,971.13
2018-04-17T11:21:08.290Z,971.16
2018-04-17T11:22:08.238Z,971.15
2018-04-17T11:23:08.223Z,971.20
2018-04-17T11:24:08.119Z,971.20
2018-04-17T11:25:08.061Z,971.19
2018-04-17T11:26:08.004Z,971.22
2018-04-17T11:27:07.945Z,971.22
2018-04-17T11:28:07.895Z,971.21
2018-04-17T11:29:07.863Z,971.21
2018-04-17T11:30:07.776Z,971.22
2018-04-17T11:31:07.720Z,971.21
2018-04-17T11:32:07.663Z,971.19
2018-04-17T11:33:07.614Z,971.23
2018-04-17T11:34:07.554Z,971.22
2018-04-17T11:35:07.491Z,971.21
2018-04-17T11:36:07.432Z,971.20
2018-04-17T11:37:07.380Z,971.19
2018-04-17T11:38:07.321Z,971.19
2018-04-17T11:39:07.267Z,971.18
2018-04-17T11:40:07.209Z,971.16
2018-04-17T11:41:07.152Z,971.16
2018-04-17T11:42:07.094Z,971.15
2018-04-17T11:43:07.073Z,971.19
2018-04-17T11:44:06.982Z,971.20
2018-04-17T11:45:06.929Z,971.16
2018-04-17T11:46:06.867Z,971.18
2018-04-17T11:47:06.810Z,971.25
2018-04-17T11:48:06.755Z,971.21
2018-04-17T11:49:06.699Z,971.18
2018-04-17T11:50:06.639Z,971.19
2018-04-17T11:51:06.585Z,971.21
2018-04-17T11:54:28.377Z,971.21
2018-04-17T11:56:03.850Z,971.27
2018-04-17T11:56:28.240Z,971.27
2018-04-17T11:57:28.187Z,971.31
2018-04-17T11:58:28.123Z,971.30
2018-04-17T11:59:28.068Z,971.35
2018-04-17T12:00:28.010Z,971.33
2018-04-17T12:01:27.952Z,971.40
2018-04-17T12:02:27.896Z,971.31
2018-04-17T12:03:27.838Z,971.34
2018-04-17T12:04:27.782Z,971.34
2018-04-17T12:05:27.723Z,971.39
2018-04-17T12:06:27.667Z,971.32
2018-04-17T12:07:27.609Z,971.40
2018-04-17T12:08:27.553Z,971.36
2018-04-17T12:09:27.498Z,971.38
2018-04-17T12:10:27.437Z,971.32
2018-04-17T12:11:27.381Z,971.34
2018-04-17T12:12:27.336Z,971.33
2018-04-17T12:13:27.268Z,971.36
2018-04-17T12:14:27.209Z,971.33
2018-04-17T12:15:27.152Z,971.30
2018-04-17T12:16:27.097Z,971.33
2018-04-17T12:17:27.039Z,971.31
2018-04-17T12:18:26.984Z,971.28
2018-04-17T12:19:26.925Z,971.29
2018-04-17T12:20:26.875Z,971.31
2018-04-17T12:21:26.811Z,971.29
2018-04-17T12:22:26.754Z,971.27
2018-04-17T12:23:26.695Z,971.29
2018-04-17T12:24:26.644Z,971.30
2018-04-17T12:25:26.582Z,971.29
2018-04-17T12:26:26.528Z,971.28
2018-04-17T12:27:26.468Z,971.28
2018-04-17T12:28:26.411Z,971.30
2018-04-17T12:29:26.356Z,971.28
2018-04-17T12:30:26.296Z,971.28